Time;durP1;ratioP1;P1;durP2;ratioP2;P2;SDS_P1;SDS_P2;PMS_P1;PMS_P2;Temp;Humidity;BMP_temperature;BMP_pressure;BME280_temperature;BME280_humidity;BME280_pressure;Samples;Min_cycle;Max_cycle;Signal;HPM_P1;HPM_P2
2022/05/04 00:00:32;;;;;;;;;;;11.10;99.90;;;;;;4932686;29;20274;-89
2022/05/04 00:02:59;;;;;;;;;;;11.10;99.90;;;;;;4949485;29;20482;-87
2022/05/04 00:05:27;;;;;;;;;;;11.10;99.90;;;;;;4950307;29;19959;-88
2022/05/04 00:07:54;;;;;;;;;;;11.40;99.90;;;;;;4949198;29;19938;-87
2022/05/04 00:10:22;;;;;;;;;;;11.00;99.90;;;;;;4932278;29;20433;-85
2022/05/04 00:12:50;;;;;;;;;;;11.00;99.90;;;;;;4965788;28;20425;-87
2022/05/04 00:15:18;;;;;;;;;;;11.00;99.90;;;;;;4948813;28;20404;-86
2022/05/04 00:17:45;;;;;;;;;;;11.00;99.90;;;;;;4949973;29;19933;-88
2022/05/04 00:20:14;;;;;;;;;;;11.00;99.90;;;;;;4933291;29;19938;-85
2022/05/04 00:22:41;;;;;;;;;;;11.00;99.90;;;;;;4948377;28;19927;-87
2022/05/04 00:25:09;;;;;;;;;;;11.00;99.90;;;;;;4948594;28;19933;-88
2022/05/04 00:27:37;;;;;;;;;;;11.10;99.90;;;;;;4949890;29;19930;-87
2022/05/04 00:30:05;;;;;;;;;;;11.00;99.90;;;;;;4932303;29;19930;-86
2022/05/04 00:32:33;;;;;;;;;;;11.00;99.90;;;;;;4948595;29;20301;-86
2022/05/04 00:35:00;;;;;;;;;;;11.00;99.90;;;;;;4948037;29;20341;-88
2022/05/04 00:37:31;;;;;;;;;;;11.00;99.90;;;;;;4948298;29;20568;-87
2022/05/04 00:39:59;;;;;;;;;;;11.00;99.90;;;;;;4948588;29;19949;-88
2022/05/04 00:42:27;;;;;;;;;;;11.00;99.90;;;;;;4930926;29;19926;-87
2022/05/04 00:44:54;;;;;;;;;;;11.00;99.90;;;;;;4915921;29;19933;-87
2022/05/04 00:47:21;;;;;;;;;;;11.00;99.90;;;;;;4903123;29;19927;-88
2022/05/04 00:49:49;;;;;;;;;;;11.00;99.90;;;;;;4930440;29;19927;-87
2022/05/04 00:52:19;;;;;;;;;;;11.00;99.90;;;;;;4948694;28;19926;-86
2022/05/04 00:54:48;;;;;;;;;;;11.00;99.90;;;;;;4947674;28;19933;-86
2022/05/04 00:57:17;;;;;;;;;;;11.00;99.90;;;;;;4946495;29;19933;-86
2022/05/04 00:59:44;;;;;;;;;;;11.00;99.90;;;;;;4912020;29;19930;-87
2022/05/04 01:02:12;;;;;;;;;;;11.00;99.90;;;;;;4936433;28;19934;-88
2022/05/04 01:04:39;;;;;;;;;;;11.00;99.90;;;;;;4950118;28;19961;-88
2022/05/04 01:07:07;;;;;;;;;;;11.00;99.90;;;;;;4967560;28;20386;-86
2022/05/04 01:09:34;;;;;;;;;;;11.00;99.90;;;;;;4949881;28;19937;-85
2022/05/04 01:12:02;;;;;;;;;;;11.00;99.90;;;;;;4967485;28;19937;-87
2022/05/04 01:14:29;;;;;;;;;;;11.00;99.90;;;;;;4953284;28;19938;-87
2022/05/04 01:16:57;;;;;;;;;;;11.10;99.90;;;;;;4948350;28;19938;-88
2022/05/04 01:19:24;;;;;;;;;;;11.00;99.90;;;;;;4947845;29;19934;-88
2022/05/04 01:21:53;;;;;;;;;;;11.10;99.90;;;;;;4948270;29;20405;-88
2022/05/04 01:24:20;;;;;;;;;;;11.10;99.90;;;;;;4947599;29;20280;-87
2022/05/04 01:26:48;;;;;;;;;;;11.10;99.90;;;;;;4929912;29;19930;-86
2022/05/04 01:29:16;;;;;;;;;;;11.10;99.90;;;;;;4931179;29;20302;-85
2022/05/04 01:31:44;;;;;;;;;;;10.40;99.90;;;;;;4914927;29;19927;-88
2022/05/04 01:34:12;;;;;;;;;;;10.10;99.90;;;;;;4949390;28;20290;-87
2022/05/04 01:36:40;;;;;;;;;;;11.10;99.90;;;;;;4951820;29;19934;-87
2022/05/04 01:39:07;;;;;;;;;;;11.10;99.90;;;;;;4934368;29;19926;-87
2022/05/04 01:44:22;;;;;;;;;;;11.10;99.90;;;;;;4932122;28;20125;-87
2022/05/04 01:46:49;;;;;;;;;;;11.00;99.90;;;;;;4943624;28;19938;-87
2022/05/04 01:49:17;;;;;;;;;;;11.00;99.90;;;;;;4934052;29;20306;-87
2022/05/04 01:51:44;;;;;;;;;;;11.10;99.90;;;;;;4922013;29;20011;-88
2022/05/04 01:54:12;;;;;;;;;;;11.10;99.90;;;;;;4935001;29;19927;-86
2022/05/04 01:56:39;;;;;;;;;;;11.10;99.90;;;;;;4951983;28;19930;-86
2022/05/04 01:59:07;;;;;;;;;;;11.10;99.90;;;;;;4935574;29;19927;-86
2022/05/04 02:01:37;;;;;;;;;;;11.10;99.90;;;;;;4918709;29;20294;-87
2022/05/04 02:04:06;;;;;;;;;;;11.10;99.90;;;;;;4937046;29;19934;-87
2022/05/04 02:06:34;;;;;;;;;;;11.10;99.90;;;;;;4918091;29;19934;-88
2022/05/04 02:09:03;;;;;;;;;;;11.10;99.90;;;;;;4918341;29;19941;-88
2022/05/04 02:11:32;;;;;;;;;;;11.10;99.90;;;;;;4923313;29;20302;-87
2022/05/04 02:14:00;;;;;;;;;;;11.10;99.90;;;;;;4921658;29;19926;-88
2022/05/04 02:16:28;;;;;;;;;;;11.10;99.90;;;;;;4912250;29;19926;-85
2022/05/04 02:18:56;;;;;;;;;;;11.00;99.90;;;;;;4954592;29;19926;-88
2022/05/04 02:21:24;;;;;;;;;;;11.10;99.90;;;;;;4953041;29;19927;-86
2022/05/04 02:23:52;;;;;;;;;;;11.10;99.90;;;;;;4954285;29;19926;-87
2022/05/04 02:26:19;;;;;;;;;;;11.10;99.90;;;;;;4935630;29;19931;-90
2022/05/04 02:28:47;;;;;;;;;;;11.10;99.90;;;;;;4936588;29;19926;-87
2022/05/04 02:31:15;;;;;;;;;;;11.10;99.90;;;;;;4958710;28;20270;-85
2022/05/04 02:33:44;;;;;;;;;;;11.10;99.90;;;;;;4954918;28;19961;-89
2022/05/04 02:38:59;;;;;;;;;;;11.10;99.90;;;;;;4956607;28;20567;-85
2022/05/04 02:41:27;;;;;;;;;;;11.10;99.90;;;;;;4958813;28;19941;-88
2022/05/04 02:43:54;;;;;;;;;;;11.00;99.90;;;;;;4939281;29;19926;-88
2022/05/04 02:46:23;;;;;;;;;;;11.10;99.90;;;;;;4953409;28;19931;-88
2022/05/04 02:48:50;;;;;;;;;;;11.10;99.90;;;;;;4954273;29;19926;-88
2022/05/04 02:51:18;;;;;;;;;;;11.10;99.90;;;;;;4953485;29;19937;-85
2022/05/04 02:53:45;;;;;;;;;;;11.10;99.90;;;;;;4938259;29;19930;-87
2022/05/04 02:56:15;;;;;;;;;;;11.10;99.90;;;;;;4933205;29;19941;-89
2022/05/04 02:58:45;;;;;;;;;;;11.10;99.90;;;;;;4953422;29;19934;-87
2022/05/04 03:04:07;;;;;;;;;;;11.10;99.90;;;;;;4935375;29;19923;-86
2022/05/04 03:06:36;;;;;;;;;;;11.20;99.90;;;;;;4935657;29;19947;-88
2022/05/04 03:09:04;;;;;;;;;;;11.20;99.90;;;;;;4950420;29;19938;-83
2022/05/04 03:14:20;;;;;;;;;;;11.30;99.90;;;;;;4918453;29;20248;-86
2022/05/04 03:16:47;;;;;;;;;;;11.30;99.90;;;;;;4961917;28;19933;-88
2022/05/04 03:19:15;;;;;;;;;;;11.40;99.90;;;;;;4955527;28;19933;-86
2022/05/04 03:21:43;;;;;;;;;;;11.30;99.90;;;;;;4956172;28;20473;-89
2022/05/04 03:24:11;;;;;;;;;;;11.30;99.90;;;;;;4975874;28;20393;-88
2022/05/04 03:26:38;;;;;;;;;;;11.30;99.90;;;;;;4922262;29;19930;-86
2022/05/04 03:29:06;;;;;;;;;;;11.30;99.90;;;;;;4954459;29;20036;-87
2022/05/04 03:31:33;;;;;;;;;;;11.40;99.90;;;;;;4968163;29;19935;-85
2022/05/04 03:34:01;;;;;;;;;;;11.40;99.90;;;;;;4968965;29;19926;-88
2022/05/04 03:36:29;;;;;;;;;;;11.40;99.90;;;;;;4952439;29;19930;-88
2022/05/04 03:38:56;;;;;;;;;;;11.40;99.90;;;;;;4969030;29;19915;-85
2022/05/04 03:41:24;;;;;;;;;;;11.60;99.90;;;;;;4949099;29;19933;-87
2022/05/04 03:43:52;;;;;;;;;;;11.50;99.90;;;;;;4948750;29;19926;-85
2022/05/04 03:46:23;;;;;;;;;;;11.40;99.90;;;;;;4952232;29;19933;-86
2022/05/04 03:48:52;;;;;;;;;;;11.40;99.90;;;;;;4614325;28;9999621;-85
2022/05/04 03:51:20;;;;;;;;;;;11.50;99.90;;;;;;4951822;29;19926;-88
2022/05/04 03:53:48;;;;;;;;;;;10.90;99.90;;;;;;4951803;29;19937;-87
2022/05/04 03:56:16;;;;;;;;;;;11.40;99.90;;;;;;4949054;28;20267;-87
2022/05/04 03:58:44;;;;;;;;;;;11.40;99.90;;;;;;4942892;29;19930;-86
2022/05/04 04:01:13;;;;;;;;;;;11.50;99.90;;;;;;4934446;29;19930;-86
2022/05/04 04:03:41;;;;;;;;;;;11.50;99.90;;;;;;4952364;29;19926;-88
2022/05/04 04:06:09;;;;;;;;;;;11.40;99.90;;;;;;4934993;29;19938;-87
2022/05/04 04:08:37;;;;;;;;;;;11.50;99.90;;;;;;4935239;29;20006;-87
2022/05/04 04:11:04;;;;;;;;;;;11.40;99.90;;;;;;4947709;28;20410;-85
2022/05/04 04:13:32;;;;;;;;;;;11.40;99.90;;;;;;4971992;28;19932;-85
2022/05/04 04:16:00;;;;;;;;;;;11.40;99.90;;;;;;4965422;28;19933;-84
2022/05/04 04:18:28;;;;;;;;;;;11.40;99.90;;;;;;4952941;29;19926;-84
2022/05/04 04:23:42;;;;;;;;;;;11.40;99.90;;;;;;4939619;29;19934;-85
2022/05/04 04:26:10;;;;;;;;;;;11.40;99.90;;;;;;4953050;28;20342;-83
2022/05/04 04:28:38;;;;;;;;;;;11.40;99.90;;;;;;4940410;29;19943;-84
2022/05/04 04:31:08;;;;;;;;;;;11.40;99.90;;;;;;4955064;28;19941;-85
2022/05/04 04:33:36;;;;;;;;;;;11.40;99.90;;;;;;4969291;28;20500;-85
2022/05/04 04:36:04;;;;;;;;;;;11.50;99.90;;;;;;4966287;28;19926;-85
2022/05/04 04:38:32;;;;;;;;;;;11.50;99.90;;;;;;4934260;29;19934;-85
2022/05/04 04:41:00;;;;;;;;;;;11.40;99.90;;;;;;4952842;28;19930;-85
2022/05/04 04:43:27;;;;;;;;;;;11.40;99.90;;;;;;4937399;29;19934;-86
2022/05/04 04:45:55;;;;;;;;;;;11.50;99.90;;;;;;4917684;29;20306;-85
2022/05/04 04:48:22;;;;;;;;;;;11.40;99.90;;;;;;4949184;29;19930;-86
2022/05/04 04:50:52;;;;;;;;;;;11.40;99.90;;;;;;4915563;29;19937;-87
2022/05/04 04:53:25;;;;;;;;;;;11.40;99.90;;;;;;4930906;29;19938;-84
2022/05/04 04:55:52;;;;;;;;;;;11.40;99.90;;;;;;4930633;29;19926;-87
2022/05/04 04:58:20;;;;;;;;;;;11.40;99.90;;;;;;4948413;29;19937;-87
2022/05/04 05:00:48;;;;;;;;;;;11.40;99.90;;;;;;4924460;29;20493;-87
2022/05/04 05:03:17;;;;;;;;;;;11.40;99.90;;;;;;4929396;29;19927;-90
2022/05/04 05:05:45;;;;;;;;;;;11.40;99.90;;;;;;4945135;29;19926;-86
2022/05/04 05:08:12;;;;;;;;;;;11.40;99.90;;;;;;4932896;29;19951;-87
2022/05/04 05:10:40;;;;;;;;;;;11.40;99.90;;;;;;4944149;29;19938;-88
2022/05/04 05:13:08;;;;;;;;;;;10.10;99.90;;;;;;4958501;28;19946;-87
2022/05/04 05:18:22;;;;;;;;;;;11.40;99.90;;;;;;4953695;29;19933;-88
2022/05/04 05:20:50;;;;;;;;;;;11.40;99.90;;;;;;4935315;29;19938;-90
2022/05/04 05:23:23;;;;;;;;;;;11.40;99.90;;;;;;4950875;29;19938;-87
2022/05/04 05:25:51;;;;;;;;;;;11.40;99.90;;;;;;4933979;29;19937;-86
2022/05/04 05:28:19;;;;;;;;;;;11.40;99.90;;;;;;4952820;28;19937;-85
2022/05/04 05:30:46;;;;;;;;;;;11.40;99.90;;;;;;4949635;29;19930;-86
2022/05/04 05:33:14;;;;;;;;;;;11.40;99.90;;;;;;4951847;29;19953;-86
2022/05/04 05:35:42;;;;;;;;;;;11.40;99.90;;;;;;4935160;29;19927;-88
2022/05/04 05:38:10;;;;;;;;;;;11.40;99.90;;;;;;4935104;29;20022;-87
2022/05/04 05:40:38;;;;;;;;;;;11.40;99.90;;;;;;4934479;29;20317;-86
2022/05/04 05:43:05;;;;;;;;;;;11.40;99.90;;;;;;4950412;28;20391;-86
2022/05/04 05:45:34;;;;;;;;;;;11.40;99.90;;;;;;4919770;29;19938;-87
2022/05/04 05:48:02;;;;;;;;;;;11.50;99.90;;;;;;4951613;28;19926;-88
2022/05/04 05:50:33;;;;;;;;;;;11.40;99.90;;;;;;4967292;28;20309;-86
2022/05/04 05:53:03;;;;;;;;;;;11.50;99.90;;;;;;4935199;29;20532;-86
2022/05/04 05:55:30;;;;;;;;;;;11.50;99.90;;;;;;4949033;28;19942;-88
2022/05/04 05:57:59;;;;;;;;;;;11.50;99.90;;;;;;4921867;29;19933;-87
2022/05/04 06:00:29;;;;;;;;;;;11.60;99.90;;;;;;4952511;29;19933;-87
2022/05/04 06:03:03;;;;;;;;;;;11.30;99.90;;;;;;4921875;29;19935;-90
2022/05/04 06:05:30;;;;;;;;;;;11.60;99.90;;;;;;4939910;29;19934;-89
2022/05/04 06:07:59;;;;;;;;;;;11.60;99.90;;;;;;4941208;29;19953;-89
2022/05/04 06:10:36;;;;;;;;;;;11.60;99.90;;;;;;4954976;29;19927;-85
2022/05/04 06:13:05;;;;;;;;;;;11.70;99.90;;;;;;4925622;29;19933;-89
2022/05/04 06:15:33;;;;;;;;;;;11.10;99.90;;;;;;4932872;29;19926;-88
2022/05/04 06:18:01;;;;;;;;;;;11.70;99.90;;;;;;4940587;29;19927;-90
2022/05/04 06:20:31;;;;;;;;;;;11.70;99.90;;;;;;4957804;28;19933;-90
2022/05/04 06:23:00;;;;;;;;;;;11.80;99.90;;;;;;4968375;28;19953;-89
2022/05/04 06:25:28;;;;;;;;;;;11.80;99.90;;;;;;4937095;29;19933;-86
2022/05/04 06:27:56;;;;;;;;;;;11.80;99.90;;;;;;4954514;29;19935;-86
2022/05/04 06:35:58;;;;;;;;;;;11.90;99.90;;;;;;4939194;29;20433;-88
2022/05/04 06:38:35;;;;;;;;;;;11.90;99.90;;;;;;4939434;29;20442;-84
2022/05/04 06:41:06;;;;;;;;;;;12.00;99.90;;;;;;4926094;28;20401;-87
2022/05/04 06:43:35;;;;;;;;;;;12.10;99.90;;;;;;4944586;29;19931;-88
2022/05/04 06:46:02;;;;;;;;;;;12.10;99.90;;;;;;4958862;29;20381;-84
2022/05/04 06:48:34;;;;;;;;;;;12.20;99.90;;;;;;4957190;29;19930;-85
2022/05/04 06:51:06;;;;;;;;;;;12.20;99.90;;;;;;4931945;29;19930;-84
2022/05/04 06:53:34;;;;;;;;;;;12.20;99.90;;;;;;4921829;29;19930;-86
2022/05/04 06:56:04;;;;;;;;;;;12.40;99.90;;;;;;4930600;29;20425;-86
2022/05/04 06:58:38;;;;;;;;;;;12.40;99.90;;;;;;4908139;29;19927;-83
2022/05/04 07:01:07;;;;;;;;;;;12.40;99.90;;;;;;4937569;29;20541;-86
2022/05/04 07:03:36;;;;;;;;;;;12.40;99.90;;;;;;4948592;29;19941;-85
2022/05/04 07:06:04;;;;;;;;;;;12.50;99.90;;;;;;4949774;29;20022;-86
2022/05/04 07:08:32;;;;;;;;;;;12.60;99.90;;;;;;4929220;29;19936;-83
2022/05/04 07:11:01;;;;;;;;;;;12.60;99.90;;;;;;4949561;28;19933;-85
2022/05/04 07:13:28;;;;;;;;;;;12.70;99.90;;;;;;4928294;29;19941;-87
2022/05/04 07:15:56;;;;;;;;;;;12.70;99.90;;;;;;4949039;28;19933;-89
2022/05/04 07:18:25;;;;;;;;;;;12.80;99.90;;;;;;4933486;29;20331;-84
2022/05/04 07:20:56;;;;;;;;;;;12.90;99.90;;;;;;4917615;29;19931;-89
2022/05/04 07:23:23;;;;;;;;;;;13.10;99.90;;;;;;4936505;29;19933;-86
2022/05/04 07:25:51;;;;;;;;;;;13.00;99.90;;;;;;4928910;29;19935;-87
2022/05/04 07:28:21;;;;;;;;;;;13.00;99.90;;;;;;4947387;29;20607;-86
2022/05/04 07:30:48;;;;;;;;;;;13.10;99.90;;;;;;4914339;29;19935;-85
2022/05/04 07:33:16;;;;;;;;;;;11.90;99.90;;;;;;4932046;29;19927;-88
2022/05/04 07:35:44;;;;;;;;;;;13.20;99.90;;;;;;4949975;29;19937;-88
2022/05/04 07:38:12;;;;;;;;;;;13.30;99.90;;;;;;4950083;29;19930;-87
2022/05/04 07:43:27;;;;;;;;;;;13.40;99.90;;;;;;4919076;29;19927;-90
2022/05/04 07:45:55;;;;;;;;;;;13.30;99.90;;;;;;4910443;29;20019;-89
2022/05/04 07:48:24;;;;;;;;;;;13.40;99.90;;;;;;4936686;29;19930;-87
2022/05/04 07:50:52;;;;;;;;;;;13.40;99.90;;;;;;4948063;29;19930;-89
2022/05/04 07:53:20;;;;;;;;;;;13.30;99.90;;;;;;4949047;28;19961;-84
2022/05/04 07:55:49;;;;;;;;;;;13.60;99.90;;;;;;4912499;29;20305;-89
2022/05/04 07:58:17;;;;;;;;;;;13.70;99.90;;;;;;4943396;29;19927;-87
2022/05/04 08:06:16;;;;;;;;;;;14.00;99.90;;;;;;4960437;29;19934;-85
2022/05/04 08:08:44;;;;;;;;;;;14.10;99.90;;;;;;4951513;29;19926;-90
2022/05/04 08:11:11;;;;;;;;;;;14.20;99.90;;;;;;4945144;28;19930;-84
2022/05/04 08:13:39;;;;;;;;;;;14.20;99.90;;;;;;4930885;29;19931;-86
2022/05/04 08:16:10;;;;;;;;;;;14.40;99.90;;;;;;4934947;29;19938;-85
2022/05/04 08:18:41;;;;;;;;;;;14.40;99.90;;;;;;4937042;29;20402;-88
2022/05/04 08:21:11;;;;;;;;;;;14.50;99.90;;;;;;4957927;29;19926;-84
2022/05/04 08:23:40;;;;;;;;;;;14.50;99.90;;;;;;4925434;29;19930;-87
2022/05/04 08:26:07;;;;;;;;;;;14.70;99.90;;;;;;4940316;29;19930;-85
2022/05/04 08:28:35;;;;;;;;;;;14.80;99.90;;;;;;4925269;29;19927;-86
2022/05/04 08:31:09;;;;;;;;;;;14.70;99.90;;;;;;4933647;29;19938;-86
2022/05/04 08:34:09;;;;;;;;;;;15.00;99.90;;;;;;4935628;29;20382;-90
2022/05/04 08:36:37;;;;;;;;;;;15.10;99.90;;;;;;4935513;29;19934;-90
2022/05/04 08:39:07;;;;;;;;;;;15.10;99.90;;;;;;4936170;29;19930;-89
2022/05/04 08:41:38;;;;;;;;;;;15.20;99.90;;;;;;4948633;28;20409;-85
2022/05/04 08:44:08;;;;;;;;;;;15.20;99.90;;;;;;4959985;28;19930;-89
2022/05/04 08:46:38;;;;;;;;;;;15.20;99.90;;;;;;4932867;29;19926;-87
2022/05/04 08:49:06;;;;;;;;;;;15.30;99.90;;;;;;4924977;29;19930;-87
2022/05/04 08:51:37;;;;;;;;;;;15.30;99.90;;;;;;4923900;29;19949;-86
2022/05/04 08:54:09;;;;;;;;;;;15.40;99.90;;;;;;4945322;29;19931;-87
2022/05/04 08:56:38;;;;;;;;;;;15.40;99.90;;;;;;4959457;29;20405;-87
2022/05/04 08:59:07;;;;;;;;;;;15.40;99.90;;;;;;4937128;29;19935;-90
2022/05/04 09:01:37;;;;;;;;;;;15.50;99.90;;;;;;4942396;29;19931;-89
2022/05/04 09:04:08;;;;;;;;;;;15.50;99.90;;;;;;4944245;29;19926;-90
2022/05/04 09:06:42;;;;;;;;;;;15.50;99.90;;;;;;4960385;29;19927;-88
2022/05/04 09:09:10;;;;;;;;;;;15.60;99.90;;;;;;4941524;29;19937;-86
2022/05/04 09:11:39;;;;;;;;;;;15.70;99.90;;;;;;4930216;28;19941;-86
2022/05/04 09:14:09;;;;;;;;;;;15.70;99.90;;;;;;4981263;28;20422;-85
2022/05/04 09:16:37;;;;;;;;;;;15.80;99.90;;;;;;4965729;28;19930;-87
2022/05/04 09:19:07;;;;;;;;;;;15.90;99.90;;;;;;4970417;28;19930;-85
2022/05/04 09:21:35;;;;;;;;;;;16.00;99.90;;;;;;4961712;28;19927;-89
2022/05/04 09:24:03;;;;;;;;;;;16.10;99.90;;;;;;4944003;29;19936;-89
2022/05/04 09:26:30;;;;;;;;;;;16.30;99.90;;;;;;4956475;29;19937;-89
2022/05/04 09:28:59;;;;;;;;;;;16.20;99.90;;;;;;4965439;29;19930;-85
2022/05/04 09:31:28;;;;;;;;;;;16.30;99.90;;;;;;4964015;29;19968;-90
2022/05/04 09:33:57;;;;;;;;;;;16.40;99.90;;;;;;4955707;29;19926;-84
2022/05/04 09:36:31;;;;;;;;;;;16.50;99.90;;;;;;4936739;29;19927;-83
2022/05/04 09:47:21;;;;;;;;;;;16.90;99.30;;;;;;4952361;28;19946;-88
2022/05/04 09:49:50;;;;;;;;;;;17.00;99.90;;;;;;4973464;29;19929;-87
2022/05/04 09:52:24;;;;;;;;;;;17.10;99.20;;;;;;4954809;29;20453;-84
2022/05/04 09:55:17;;;;;;;;;;;17.30;99.20;;;;;;4972722;28;19928;-86
2022/05/04 09:57:45;;;;;;;;;;;17.40;98.60;;;;;;4955171;29;19914;-84
2022/05/04 10:00:15;;;;;;;;;;;17.50;98.10;;;;;;4971023;29;19914;-85
2022/05/04 10:02:46;;;;;;;;;;;17.60;98.40;;;;;;4970614;29;19931;-85
2022/05/04 10:05:14;;;;;;;;;;;17.70;98.20;;;;;;4946305;29;19918;-84
2022/05/04 10:07:42;;;;;;;;;;;17.70;97.90;;;;;;4924866;29;19933;-83
2022/05/04 10:10:14;;;;;;;;;;;17.90;97.20;;;;;;4953650;29;19927;-85
2022/05/04 10:12:43;;;;;;;;;;;17.90;96.70;;;;;;4942541;29;19928;-85
2022/05/04 10:15:14;;;;;;;;;;;18.00;96.80;;;;;;4975827;28;19915;-83
2022/05/04 10:17:58;;;;;;;;;;;18.10;96.70;;;;;;4958799;29;19930;-85
2022/05/04 10:20:31;;;;;;;;;;;18.30;95.70;;;;;;4958054;29;19936;-86
2022/05/04 10:23:15;;;;;;;;;;;18.40;96.10;;;;;;4976101;29;19914;-85
2022/05/04 10:25:45;;;;;;;;;;;18.50;95.90;;;;;;4974090;28;19936;-84
2022/05/04 10:28:16;;;;;;;;;;;18.60;95.70;;;;;;4974100;29;19910;-85
2022/05/04 10:30:47;;;;;;;;;;;18.70;95.70;;;;;;4966578;29;19931;-83
2022/05/04 10:33:18;;;;;;;;;;;18.70;95.20;;;;;;4950987;29;19921;-85
2022/05/04 10:35:47;;;;;;;;;;;18.60;95.50;;;;;;4963879;29;19926;-84
2022/05/04 10:38:19;;;;;;;;;;;18.60;95.30;;;;;;4968937;29;20111;-83
2022/05/04 10:40:53;;;;;;;;;;;18.60;95.00;;;;;;4969922;28;19950;-84
2022/05/04 10:43:34;;;;;;;;;;;18.50;95.30;;;;;;4945600;29;19938;-85
2022/05/04 10:46:05;;;;;;;;;;;18.50;95.10;;;;;;4960362;28;20036;-83
2022/05/04 10:48:33;;;;;;;;;;;18.50;95.10;;;;;;4946562;29;19946;-85
2022/05/04 10:51:11;;;;;;;;;;;18.50;95.10;;;;;;4963429;28;19927;-84
2022/05/04 10:53:42;;;;;;;;;;;18.40;94.30;;;;;;4960558;29;19953;-83
2022/05/04 10:56:14;;;;;;;;;;;18.40;94.80;;;;;;4958764;29;19931;-85
2022/05/04 10:58:50;;;;;;;;;;;18.30;94.00;;;;;;4963212;29;19954;-84
2022/05/04 11:01:30;;;;;;;;;;;18.20;93.90;;;;;;4951976;29;19933;-85
2022/05/04 11:04:05;;;;;;;;;;;18.20;93.90;;;;;;4967194;29;19932;-86
2022/05/04 11:06:43;;;;;;;;;;;18.30;94.20;;;;;;4951229;29;19938;-84
2022/05/04 11:09:15;;;;;;;;;;;18.40;94.40;;;;;;4952717;29;19915;-85
2022/05/04 11:11:44;;;;;;;;;;;18.40;94.10;;;;;;4968528;28;19927;-83
2022/05/04 11:14:12;;;;;;;;;;;18.40;94.30;;;;;;4935625;29;19931;-85
2022/05/04 11:16:42;;;;;;;;;;;18.40;94.30;;;;;;4967397;28;19925;-86
2022/05/04 11:19:11;;;;;;;;;;;18.40;94.40;;;;;;4946679;29;19942;-85
2022/05/04 11:21:38;;;;;;;;;;;18.30;94.40;;;;;;4949032;29;19922;-85
2022/05/04 11:24:11;;;;;;;;;;;18.20;94.70;;;;;;4952761;29;19933;-85
2022/05/04 11:26:40;;;;;;;;;;;18.00;95.60;;;;;;4938415;29;19936;-84
2022/05/04 11:29:13;;;;;;;;;;;17.90;95.60;;;;;;4952551;29;19929;-87
2022/05/04 11:31:56;;;;;;;;;;;17.70;95.70;;;;;;4956901;29;19937;-86
2022/05/04 11:34:25;;;;;;;;;;;17.70;95.30;;;;;;4972315;29;20010;-85
2022/05/04 11:36:54;;;;;;;;;;;17.60;95.90;;;;;;4949305;29;19941;-84
2022/05/04 11:39:23;;;;;;;;;;;18.00;95.90;;;;;;4962182;29;19933;-86
2022/05/04 11:41:54;;;;;;;;;;;17.50;95.80;;;;;;4936003;29;19926;-87
2022/05/04 11:44:22;;;;;;;;;;;17.40;95.90;;;;;;4950043;28;19935;-85
2022/05/04 11:46:51;;;;;;;;;;;17.30;96.10;;;;;;4956218;29;19930;-86
2022/05/04 11:49:20;;;;;;;;;;;17.20;96.20;;;;;;4955837;29;19930;-87
2022/05/04 11:51:52;;;;;;;;;;;17.20;95.70;;;;;;4933817;29;19934;-85
2022/05/04 11:54:19;;;;;;;;;;;17.10;95.40;;;;;;4953103;29;20298;-86
2022/05/04 11:56:47;;;;;;;;;;;16.90;95.50;;;;;;4934926;29;19926;-88
2022/05/04 11:59:16;;;;;;;;;;;16.90;95.80;;;;;;4950823;29;20286;-85
2022/05/04 12:01:45;;;;;;;;;;;16.90;96.00;;;;;;4904666;29;19931;-88
2022/05/04 12:04:13;;;;;;;;;;;16.80;96.10;;;;;;4953602;29;21228;-87
2022/05/04 12:06:43;;;;;;;;;;;16.80;95.90;;;;;;4937420;29;20363;-85
2022/05/04 12:09:18;;;;;;;;;;;16.70;95.90;;;;;;4934211;29;19942;-86
2022/05/04 12:11:47;;;;;;;;;;;16.70;96.00;;;;;;4950915;28;19930;-89
2022/05/04 12:14:18;;;;;;;;;;;16.80;95.80;;;;;;4915711;29;19977;-88
2022/05/04 12:16:46;;;;;;;;;;;16.60;95.80;;;;;;4948994;29;19927;-86
2022/05/04 12:19:14;;;;;;;;;;;16.60;95.90;;;;;;4949361;28;19931;-86
2022/05/04 12:21:41;;;;;;;;;;;16.60;96.00;;;;;;4950512;29;19927;-87
2022/05/04 12:24:13;;;;;;;;;;;16.60;95.70;;;;;;4935306;29;20346;-85
2022/05/04 12:26:42;;;;;;;;;;;16.50;95.60;;;;;;4934513;29;19937;-89
2022/05/04 12:34:56;;;;;;;;;;;16.70;95.90;;;;;;4936637;29;19927;-86
2022/05/04 12:37:29;;;;;;;;;;;16.70;96.00;;;;;;4946256;29;19931;-88
2022/05/04 12:40:01;;;;;;;;;;;16.80;96.10;;;;;;4935542;29;19926;-86
2022/05/04 12:42:30;;;;;;;;;;;16.90;96.20;;;;;;4932738;29;19934;-84
2022/05/04 12:44:59;;;;;;;;;;;16.20;96.30;;;;;;4952253;29;20302;-88
2022/05/04 12:47:28;;;;;;;;;;;16.50;96.10;;;;;;4952414;28;19950;-90
2022/05/04 12:49:55;;;;;;;;;;;16.90;96.40;;;;;;4950754;29;20302;-86
2022/05/04 12:52:22;;;;;;;;;;;16.90;96.20;;;;;;4954617;28;19926;-86
2022/05/04 12:54:53;;;;;;;;;;;16.90;96.80;;;;;;4950824;28;19930;-90
2022/05/04 12:57:21;;;;;;;;;;;17.00;97.10;;;;;;4925578;29;19926;-89
2022/05/04 12:59:49;;;;;;;;;;;17.00;96.70;;;;;;4958629;28;19986;-90
2022/05/04 13:02:20;;;;;;;;;;;17.10;96.90;;;;;;4949696;29;20398;-86
2022/05/04 13:04:49;;;;;;;;;;;17.10;96.70;;;;;;4941171;29;20383;-91
2022/05/04 13:07:18;;;;;;;;;;;17.20;96.70;;;;;;4935791;29;19931;-86
2022/05/04 13:09:45;;;;;;;;;;;17.30;95.90;;;;;;4954165;29;19927;-88
2022/05/04 13:12:14;;;;;;;;;;;17.40;95.60;;;;;;4923861;29;20512;-90
2022/05/04 13:14:41;;;;;;;;;;;17.50;95.60;;;;;;4932247;29;20283;-86
2022/05/04 13:17:09;;;;;;;;;;;17.70;94.70;;;;;;4926041;29;19927;-88
2022/05/04 13:19:37;;;;;;;;;;;17.80;94.60;;;;;;4948519;29;19933;-87
2022/05/04 13:22:04;;;;;;;;;;;18.00;94.40;;;;;;4942217;29;19931;-89
2022/05/04 13:24:32;;;;;;;;;;;18.30;94.70;;;;;;4964840;28;19934;-86
2022/05/04 13:26:59;;;;;;;;;;;18.70;94.30;;;;;;4934396;29;19934;-86
2022/05/04 13:29:27;;;;;;;;;;;19.00;93.30;;;;;;4943725;28;19927;-90
2022/05/04 13:31:54;;;;;;;;;;;19.20;92.60;;;;;;4935510;29;19934;-85
2022/05/04 13:34:22;;;;;;;;;;;19.40;92.80;;;;;;4939085;29;19933;-84
2022/05/04 13:36:49;;;;;;;;;;;19.60;92.70;;;;;;4964230;29;19938;-88
2022/05/04 13:39:17;;;;;;;;;;;19.80;92.20;;;;;;4938427;29;19927;-91
2022/05/04 13:41:45;;;;;;;;;;;20.00;91.60;;;;;;4938384;28;19926;-88
2022/05/04 13:44:12;;;;;;;;;;;20.10;91.10;;;;;;4957064;29;19934;-92
2022/05/04 13:46:40;;;;;;;;;;;20.30;91.30;;;;;;4925383;29;20432;-86
2022/05/04 13:49:08;;;;;;;;;;;20.20;90.80;;;;;;4928001;28;19930;-90
2022/05/04 13:54:22;;;;;;;;;;;20.20;91.00;;;;;;4941667;29;19957;-91
2022/05/04 13:56:49;;;;;;;;;;;20.20;90.60;;;;;;4942113;29;19995;-90
2022/05/04 13:59:17;;;;;;;;;;;20.20;90.50;;;;;;4927299;29;20042;-88
2022/05/04 14:01:45;;;;;;;;;;;20.30;90.70;;;;;;4929293;29;19934;-90
2022/05/04 14:04:13;;;;;;;;;;;20.30;90.50;;;;;;4942428;29;19934;-88
2022/05/04 14:06:43;;;;;;;;;;;20.30;90.20;;;;;;4936725;29;19946;-88
2022/05/04 14:09:11;;;;;;;;;;;20.30;90.60;;;;;;4920633;29;19926;-90
2022/05/04 14:11:39;;;;;;;;;;;20.40;90.30;;;;;;4906716;29;19927;-91
2022/05/04 14:16:53;;;;;;;;;;;20.10;90.10;;;;;;4941357;29;19938;-90
2022/05/04 14:19:22;;;;;;;;;;;19.90;90.70;;;;;;4914362;28;20448;-91
2022/05/04 14:21:51;;;;;;;;;;;19.60;90.50;;;;;;4910097;29;19934;-91
2022/05/04 14:24:21;;;;;;;;;;;19.30;90.70;;;;;;4932680;29;19934;-90
2022/05/04 14:26:51;;;;;;;;;;;19.10;91.00;;;;;;4936234;29;19941;-89
2022/05/04 14:29:20;;;;;;;;;;;18.90;91.20;;;;;;4934148;29;20201;-87
2022/05/04 14:31:53;;;;;;;;;;;18.80;91.60;;;;;;4923437;29;19938;-90
2022/05/04 14:34:21;;;;;;;;;;;18.70;91.60;;;;;;4927319;29;20037;-88
2022/05/04 14:36:50;;;;;;;;;;;18.60;91.80;;;;;;4910391;29;19954;-90
2022/05/04 14:39:25;;;;;;;;;;;18.40;91.80;;;;;;4953553;29;19931;-88
2022/05/04 14:41:56;;;;;;;;;;;18.50;91.80;;;;;;4948310;29;19933;-90
2022/05/04 14:44:26;;;;;;;;;;;18.40;92.00;;;;;;4919150;28;19930;-90
2022/05/04 14:46:55;;;;;;;;;;;18.40;92.00;;;;;;4908597;29;19927;-90
2022/05/04 14:49:26;;;;;;;;;;;18.30;92.00;;;;;;4946848;29;19937;-89
2022/05/04 14:52:03;;;;;;;;;;;18.30;92.00;;;;;;4923722;29;19940;-90
2022/05/04 14:54:34;;;;;;;;;;;18.20;92.10;;;;;;4912640;29;19927;-88
2022/05/04 14:57:19;;;;;;;;;;;18.20;92.00;;;;;;4914931;29;19927;-89
2022/05/04 15:00:12;;;;;;;;;;;18.10;91.90;;;;;;4954829;29;19930;-91
2022/05/04 15:06:08;;;;;;;;;;;18.00;92.50;;;;;;4965637;28;19926;-87
2022/05/04 15:08:39;;;;;;;;;;;18.00;92.60;;;;;;4954961;29;19941;-87
2022/05/04 15:11:10;;;;;;;;;;;18.00;92.30;;;;;;4955216;28;19937;-88
2022/05/04 15:13:41;;;;;;;;;;;18.10;92.20;;;;;;4934701;29;19927;-89
2022/05/04 15:16:39;;;;;;;;;;;18.20;92.10;;;;;;4942879;29;19926;-88
2022/05/04 15:19:07;;;;;;;;;;;18.20;92.00;;;;;;4939001;29;19934;-88
2022/05/04 15:21:36;;;;;;;;;;;18.80;92.10;;;;;;4927561;29;20465;-88